sensor_id;sensor_type;location;lat;lon;timestamp;P1;durP1;ratioP1;P2;durP2;ratioP2
5847;SDS011;8756;49.29324300;8.70599800;2022-11-04T00:02:20;10.50;;;3.80;;
5847;SDS011;8756;49.29324300;8.70599800;2022-11-04T00:04:46;10.07;;;3.40;;
5847;SDS011;8756;49.29324300;8.70599800;2022-11-04T00:07:12;11.60;;;3.67;;
5847;SDS011;8756;49.29324300;8.70599800;2022-11-04T00:09:56;9.47;;;3.50;;
5847;SDS011;8756;49.29324300;8.70599800;2022-11-04T00:12:21;11.37;;;4.00;;
5847;SDS011;8756;49.29324300;8.70599800;2022-11-04T00:14:49;9.93;;;3.47;;
5847;SDS011;8756;49.29324300;8.70599800;2022-11-04T00:17:15;11.93;;;4.10;;
5847;SDS011;8756;49.29324300;8.70599800;2022-11-04T00:19:50;12.50;;;3.57;;
5847;SDS011;8756;49.29324300;8.70599800;2022-11-04T00:22:37;11.07;;;3.80;;
5847;SDS011;8756;49.29324300;8.70599800;2022-11-04T00:25:23;10.20;;;4.07;;
5847;SDS011;8756;49.29324300;8.70599800;2022-11-04T00:28:12;10.53;;;3.97;;
5847;SDS011;8756;49.29324300;8.70599800;2022-11-04T00:30:59;10.60;;;3.17;;
5847;SDS011;8756;49.29324300;8.70599800;2022-11-04T00:33:45;11.50;;;3.43;;
5847;SDS011;8756;49.29324300;8.70599800;2022-11-04T00:36:12;10.43;;;3.60;;
5847;SDS011;8756;49.29324300;8.70599800;2022-11-04T00:38:38;10.30;;;3.13;;
5847;SDS011;8756;49.29324300;8.70599800;2022-11-04T00:41:04;9.90;;;3.13;;
5847;SDS011;8756;49.29324300;8.70599800;2022-11-04T00:43:49;9.93;;;3.20;;
5847;SDS011;8756;49.29324300;8.70599800;2022-11-04T00:46:23;10.10;;;4.37;;
5847;SDS011;8756;49.29324300;8.70599800;2022-11-04T00:48:50;14.17;;;3.93;;
5847;SDS011;8756;49.29324300;8.70599800;2022-11-04T00:51:15;10.10;;;3.63;;
5847;SDS011;8756;49.29324300;8.70599800;2022-11-04T00:53:41;9.87;;;3.33;;
5847;SDS011;8756;49.29324300;8.70599800;2022-11-04T00:56:10;8.83;;;3.27;;
5847;SDS011;8756;49.29324300;8.70599800;2022-11-04T00:58:35;11.40;;;2.80;;
5847;SDS011;8756;49.29324300;8.70599800;2022-11-04T01:01:08;9.30;;;2.87;;
5847;SDS011;8756;49.29324300;8.70599800;2022-11-04T01:03:35;12.37;;;3.20;;
5847;SDS011;8756;49.29324300;8.70599800;2022-11-04T01:06:01;11.70;;;3.37;;
5847;SDS011;8756;49.29324300;8.70599800;2022-11-04T01:08:28;9.73;;;3.60;;
5847;SDS011;8756;49.29324300;8.70599800;2022-11-04T01:10:54;9.73;;;3.70;;
5847;SDS011;8756;49.29324300;8.70599800;2022-11-04T01:13:19;11.07;;;4.20;;
5847;SDS011;8756;49.29324300;8.70599800;2022-11-04T01:15:45;9.93;;;3.03;;
5847;SDS011;8756;49.29324300;8.70599800;2022-11-04T01:18:11;10.30;;;3.53;;
5847;SDS011;8756;49.29324300;8.70599800;2022-11-04T01:20:37;11.37;;;3.30;;
5847;SDS011;8756;49.29324300;8.70599800;2022-11-04T01:23:02;9.83;;;3.30;;
5847;SDS011;8756;49.29324300;8.70599800;2022-11-04T01:25:28;10.10;;;4.10;;
5847;SDS011;8756;49.29324300;8.70599800;2022-11-04T01:27:54;10.10;;;3.77;;
5847;SDS011;8756;49.29324300;8.70599800;2022-11-04T01:30:20;11.63;;;3.27;;
5847;SDS011;8756;49.29324300;8.70599800;2022-11-04T01:32:45;14.23;;;4.40;;
5847;SDS011;8756;49.29324300;8.70599800;2022-11-04T01:35:11;9.87;;;3.23;;
5847;SDS011;8756;49.29324300;8.70599800;2022-11-04T01:37:37;10.20;;;3.50;;
5847;SDS011;8756;49.29324300;8.70599800;2022-11-04T01:40:03;9.30;;;3.10;;
5847;SDS011;8756;49.29324300;8.70599800;2022-11-04T01:42:29;14.77;;;3.63;;
5847;SDS011;8756;49.29324300;8.70599800;2022-11-04T01:44:55;10.70;;;3.37;;
5847;SDS011;8756;49.29324300;8.70599800;2022-11-04T01:47:31;9.97;;;3.50;;
5847;SDS011;8756;49.29324300;8.70599800;2022-11-04T01:50:13;10.70;;;3.60;;
5847;SDS011;8756;49.29324300;8.70599800;2022-11-04T01:52:47;9.13;;;3.23;;
5847;SDS011;8756;49.29324300;8.70599800;2022-11-04T01:55:25;9.50;;;3.50;;
5847;SDS011;8756;49.29324300;8.70599800;2022-11-04T01:57:57;9.87;;;3.13;;
5847;SDS011;8756;49.29324300;8.70599800;2022-11-04T02:00:28;9.27;;;3.17;;
5847;SDS011;8756;49.29324300;8.70599800;2022-11-04T02:03:07;10.10;;;3.80;;
5847;SDS011;8756;49.29324300;8.70599800;2022-11-04T02:05:47;10.33;;;2.90;;
5847;SDS011;8756;49.29324300;8.70599800;2022-11-04T02:08:14;9.77;;;3.13;;
5847;SDS011;8756;49.29324300;8.70599800;2022-11-04T02:10:45;9.97;;;3.70;;
5847;SDS011;8756;49.29324300;8.70599800;2022-11-04T02:13:17;10.40;;;3.63;;
5847;SDS011;8756;49.29324300;8.70599800;2022-11-04T02:18:53;10.47;;;3.90;;
5847;SDS011;8756;49.29324300;8.70599800;2022-11-04T02:37:18;9.90;;;3.17;;
5847;SDS011;8756;49.29324300;8.70599800;2022-11-04T02:45:59;9.77;;;3.43;;
5847;SDS011;8756;49.29324300;8.70599800;2022-11-04T02:54:05;15.23;;;3.07;;
5847;SDS011;8756;49.29324300;8.70599800;2022-11-04T02:56:40;10.43;;;3.30;;
5847;SDS011;8756;49.29324300;8.70599800;2022-11-04T02:59:15;10.07;;;3.00;;
5847;SDS011;8756;49.29324300;8.70599800;2022-11-04T03:01:50;11.20;;;3.60;;
5847;SDS011;8756;49.29324300;8.70599800;2022-11-04T03:04:20;9.40;;;2.60;;
5847;SDS011;8756;49.29324300;8.70599800;2022-11-04T03:06:51;10.07;;;3.07;;
5847;SDS011;8756;49.29324300;8.70599800;2022-11-04T03:09:18;12.67;;;3.60;;
5847;SDS011;8756;49.29324300;8.70599800;2022-11-04T03:11:47;11.73;;;3.30;;
5847;SDS011;8756;49.29324300;8.70599800;2022-11-04T03:14:19;10.60;;;4.33;;
5847;SDS011;8756;49.29324300;8.70599800;2022-11-04T03:17:18;13.33;;;4.00;;
5847;SDS011;8756;49.29324300;8.70599800;2022-11-04T03:19:57;10.87;;;3.40;;
5847;SDS011;8756;49.29324300;8.70599800;2022-11-04T03:22:28;10.30;;;3.50;;
5847;SDS011;8756;49.29324300;8.70599800;2022-11-04T03:25:00;10.40;;;3.50;;
5847;SDS011;8756;49.29324300;8.70599800;2022-11-04T03:30:11;10.03;;;3.60;;
5847;SDS011;8756;49.29324300;8.70599800;2022-11-04T03:35:31;11.53;;;3.77;;
5847;SDS011;8756;49.29324300;8.70599800;2022-11-04T03:37:57;12.70;;;4.20;;
5847;SDS011;8756;49.29324300;8.70599800;2022-11-04T03:40:26;11.10;;;3.93;;
5847;SDS011;8756;49.29324300;8.70599800;2022-11-04T03:42:54;12.50;;;3.30;;
5847;SDS011;8756;49.29324300;8.70599800;2022-11-04T03:45:24;10.57;;;3.60;;
5847;SDS011;8756;49.29324300;8.70599800;2022-11-04T03:47:51;9.73;;;3.17;;
5847;SDS011;8756;49.29324300;8.70599800;2022-11-04T03:50:31;11.37;;;4.00;;
5847;SDS011;8756;49.29324300;8.70599800;2022-11-04T03:53:04;10.77;;;3.50;;
5847;SDS011;8756;49.29324300;8.70599800;2022-11-04T04:01:36;11.30;;;3.40;;
5847;SDS011;8756;49.29324300;8.70599800;2022-11-04T04:04:30;11.70;;;4.27;;
5847;SDS011;8756;49.29324300;8.70599800;2022-11-04T04:07:04;13.70;;;4.13;;
5847;SDS011;8756;49.29324300;8.70599800;2022-11-04T04:10:13;12.83;;;3.77;;
5847;SDS011;8756;49.29324300;8.70599800;2022-11-04T04:13:18;11.43;;;3.80;;
5847;SDS011;8756;49.29324300;8.70599800;2022-11-04T04:15:56;10.40;;;3.70;;
5847;SDS011;8756;49.29324300;8.70599800;2022-11-04T04:18:38;15.67;;;3.37;;
5847;SDS011;8756;49.29324300;8.70599800;2022-11-04T04:21:15;11.23;;;3.60;;
5847;SDS011;8756;49.29324300;8.70599800;2022-11-04T04:23:46;11.50;;;3.50;;
5847;SDS011;8756;49.29324300;8.70599800;2022-11-04T04:26:34;10.67;;;3.33;;
5847;SDS011;8756;49.29324300;8.70599800;2022-11-04T04:29:20;11.20;;;3.13;;
5847;SDS011;8756;49.29324300;8.70599800;2022-11-04T04:31:47;11.53;;;3.27;;
5847;SDS011;8756;49.29324300;8.70599800;2022-11-04T04:34:15;11.80;;;3.80;;
5847;SDS011;8756;49.29324300;8.70599800;2022-11-04T04:39:51;17.93;;;3.90;;
5847;SDS011;8756;49.29324300;8.70599800;2022-11-04T04:42:42;11.00;;;3.40;;
5847;SDS011;8756;49.29324300;8.70599800;2022-11-04T04:45:29;11.20;;;3.37;;
5847;SDS011;8756;49.29324300;8.70599800;2022-11-04T04:47:57;10.27;;;3.10;;
5847;SDS011;8756;49.29324300;8.70599800;2022-11-04T04:50:24;11.00;;;3.73;;
5847;SDS011;8756;49.29324300;8.70599800;2022-11-04T04:52:56;10.23;;;2.83;;
5847;SDS011;8756;49.29324300;8.70599800;2022-11-04T04:55:24;12.83;;;4.20;;
5847;SDS011;8756;49.29324300;8.70599800;2022-11-04T04:57:50;10.70;;;3.60;;
5847;SDS011;8756;49.29324300;8.70599800;2022-11-04T05:00:19;12.50;;;4.10;;
5847;SDS011;8756;49.29324300;8.70599800;2022-11-04T05:02:45;11.80;;;3.37;;
5847;SDS011;8756;49.29324300;8.70599800;2022-11-04T05:05:12;13.50;;;4.33;;
5847;SDS011;8756;49.29324300;8.70599800;2022-11-04T05:07:39;18.40;;;5.37;;
5847;SDS011;8756;49.29324300;8.70599800;2022-11-04T05:10:05;13.40;;;4.03;;
5847;SDS011;8756;49.29324300;8.70599800;2022-11-04T05:12:37;12.37;;;3.30;;
5847;SDS011;8756;49.29324300;8.70599800;2022-11-04T05:15:22;10.67;;;3.80;;
5847;SDS011;8756;49.29324300;8.70599800;2022-11-04T05:17:52;11.47;;;3.30;;
5847;SDS011;8756;49.29324300;8.70599800;2022-11-04T05:20:19;13.70;;;3.40;;
5847;SDS011;8756;49.29324300;8.70599800;2022-11-04T05:22:45;12.73;;;3.23;;
5847;SDS011;8756;49.29324300;8.70599800;2022-11-04T05:25:11;12.53;;;3.90;;
5847;SDS011;8756;49.29324300;8.70599800;2022-11-04T05:27:37;10.70;;;3.63;;
5847;SDS011;8756;49.29324300;8.70599800;2022-11-04T05:30:02;10.30;;;3.50;;
5847;SDS011;8756;49.29324300;8.70599800;2022-11-04T05:32:29;11.50;;;3.73;;
5847;SDS011;8756;49.29324300;8.70599800;2022-11-04T05:34:58;10.93;;;3.60;;
5847;SDS011;8756;49.29324300;8.70599800;2022-11-04T05:37:24;15.20;;;3.50;;
5847;SDS011;8756;49.29324300;8.70599800;2022-11-04T05:39:50;10.47;;;3.60;;
5847;SDS011;8756;49.29324300;8.70599800;2022-11-04T05:42:16;10.00;;;3.57;;
5847;SDS011;8756;49.29324300;8.70599800;2022-11-04T05:44:42;13.67;;;3.97;;
5847;SDS011;8756;49.29324300;8.70599800;2022-11-04T05:47:07;10.30;;;3.50;;
5847;SDS011;8756;49.29324300;8.70599800;2022-11-04T05:49:33;10.53;;;3.93;;
5847;SDS011;8756;49.29324300;8.70599800;2022-11-04T05:51:59;13.20;;;4.33;;
5847;SDS011;8756;49.29324300;8.70599800;2022-11-04T05:54:25;10.40;;;4.20;;
5847;SDS011;8756;49.29324300;8.70599800;2022-11-04T05:56:51;11.97;;;4.00;;
5847;SDS011;8756;49.29324300;8.70599800;2022-11-04T05:59:17;12.13;;;4.23;;
5847;SDS011;8756;49.29324300;8.70599800;2022-11-04T06:01:43;12.77;;;4.17;;
5847;SDS011;8756;49.29324300;8.70599800;2022-11-04T06:04:14;12.70;;;4.40;;
5847;SDS011;8756;49.29324300;8.70599800;2022-11-04T06:06:42;12.00;;;4.30;;
5847;SDS011;8756;49.29324300;8.70599800;2022-11-04T06:09:09;13.20;;;4.07;;
5847;SDS011;8756;49.29324300;8.70599800;2022-11-04T06:11:35;18.13;;;4.27;;
5847;SDS011;8756;49.29324300;8.70599800;2022-11-04T06:14:02;12.37;;;4.27;;
5847;SDS011;8756;49.29324300;8.70599800;2022-11-04T06:16:31;11.73;;;4.13;;
5847;SDS011;8756;49.29324300;8.70599800;2022-11-04T06:18:57;10.07;;;3.97;;
5847;SDS011;8756;49.29324300;8.70599800;2022-11-04T06:21:30;12.07;;;4.10;;
5847;SDS011;8756;49.29324300;8.70599800;2022-11-04T06:23:57;12.13;;;4.20;;
5847;SDS011;8756;49.29324300;8.70599800;2022-11-04T06:26:24;12.83;;;4.50;;
5847;SDS011;8756;49.29324300;8.70599800;2022-11-04T06:28:51;11.67;;;4.03;;
5847;SDS011;8756;49.29324300;8.70599800;2022-11-04T06:31:17;10.47;;;3.60;;
5847;SDS011;8756;49.29324300;8.70599800;2022-11-04T06:33:44;12.60;;;3.87;;
5847;SDS011;8756;49.29324300;8.70599800;2022-11-04T06:36:11;12.37;;;4.13;;
5847;SDS011;8756;49.29324300;8.70599800;2022-11-04T06:38:39;11.60;;;4.17;;
5847;SDS011;8756;49.29324300;8.70599800;2022-11-04T06:41:07;12.57;;;4.53;;
5847;SDS011;8756;49.29324300;8.70599800;2022-11-04T06:43:37;15.10;;;4.67;;
5847;SDS011;8756;49.29324300;8.70599800;2022-11-04T06:46:03;11.97;;;4.47;;
5847;SDS011;8756;49.29324300;8.70599800;2022-11-04T06:48:29;18.40;;;5.50;;
5847;SDS011;8756;49.29324300;8.70599800;2022-11-04T06:50:56;17.03;;;5.40;;
5847;SDS011;8756;49.29324300;8.70599800;2022-11-04T06:53:23;18.73;;;6.27;;
5847;SDS011;8756;49.29324300;8.70599800;2022-11-04T06:55:50;15.20;;;6.80;;
5847;SDS011;8756;49.29324300;8.70599800;2022-11-04T06:58:17;16.20;;;6.43;;
5847;SDS011;8756;49.29324300;8.70599800;2022-11-04T07:00:43;17.30;;;5.93;;
5847;SDS011;8756;49.29324300;8.70599800;2022-11-04T07:03:10;16.97;;;5.50;;
5847;SDS011;8756;49.29324300;8.70599800;2022-11-04T07:05:35;15.50;;;5.73;;
5847;SDS011;8756;49.29324300;8.70599800;2022-11-04T07:08:01;19.37;;;6.10;;
5847;SDS011;8756;49.29324300;8.70599800;2022-11-04T07:10:27;16.53;;;5.60;;
5847;SDS011;8756;49.29324300;8.70599800;2022-11-04T07:12:52;14.60;;;5.60;;
5847;SDS011;8756;49.29324300;8.70599800;2022-11-04T07:15:19;15.33;;;5.23;;
5847;SDS011;8756;49.29324300;8.70599800;2022-11-04T07:17:44;14.97;;;5.03;;
5847;SDS011;8756;49.29324300;8.70599800;2022-11-04T07:20:10;18.13;;;6.43;;
5847;SDS011;8756;49.29324300;8.70599800;2022-11-04T07:22:37;13.50;;;4.77;;
5847;SDS011;8756;49.29324300;8.70599800;2022-11-04T07:25:04;16.13;;;5.57;;
5847;SDS011;8756;49.29324300;8.70599800;2022-11-04T07:27:30;13.70;;;5.87;;
5847;SDS011;8756;49.29324300;8.70599800;2022-11-04T07:29:56;12.37;;;5.30;;
5847;SDS011;8756;49.29324300;8.70599800;2022-11-04T07:32:21;12.70;;;5.93;;
5847;SDS011;8756;49.29324300;8.70599800;2022-11-04T07:34:47;16.53;;;5.67;;
5847;SDS011;8756;49.29324300;8.70599800;2022-11-04T07:37:13;15.90;;;6.17;;
5847;SDS011;8756;49.29324300;8.70599800;2022-11-04T07:39:39;16.37;;;6.50;;
5847;SDS011;8756;49.29324300;8.70599800;2022-11-04T07:42:06;13.70;;;5.40;;
5847;SDS011;8756;49.29324300;8.70599800;2022-11-04T07:44:35;14.30;;;5.87;;
5847;SDS011;8756;49.29324300;8.70599800;2022-11-04T07:47:01;13.30;;;5.27;;
5847;SDS011;8756;49.29324300;8.70599800;2022-11-04T07:49:27;13.00;;;5.30;;
5847;SDS011;8756;49.29324300;8.70599800;2022-11-04T07:51:53;16.17;;;5.57;;
5847;SDS011;8756;49.29324300;8.70599800;2022-11-04T07:54:19;18.80;;;5.97;;
5847;SDS011;8756;49.29324300;8.70599800;2022-11-04T07:56:44;15.57;;;6.20;;
5847;SDS011;8756;49.29324300;8.70599800;2022-11-04T07:59:10;12.30;;;5.20;;
5847;SDS011;8756;49.29324300;8.70599800;2022-11-04T08:01:36;13.00;;;5.40;;
5847;SDS011;8756;49.29324300;8.70599800;2022-11-04T08:04:01;11.33;;;3.93;;
5847;SDS011;8756;49.29324300;8.70599800;2022-11-04T08:06:29;16.50;;;5.43;;
5847;SDS011;8756;49.29324300;8.70599800;2022-11-04T08:08:58;10.90;;;4.70;;
5847;SDS011;8756;49.29324300;8.70599800;2022-11-04T08:11:24;12.53;;;4.67;;
5847;SDS011;8756;49.29324300;8.70599800;2022-11-04T08:13:52;11.30;;;4.17;;
5847;SDS011;8756;49.29324300;8.70599800;2022-11-04T08:16:21;12.43;;;4.03;;
5847;SDS011;8756;49.29324300;8.70599800;2022-11-04T08:18:49;14.23;;;4.30;;
5847;SDS011;8756;49.29324300;8.70599800;2022-11-04T08:21:17;13.40;;;4.57;;
5847;SDS011;8756;49.29324300;8.70599800;2022-11-04T08:23:44;11.87;;;5.43;;
5847;SDS011;8756;49.29324300;8.70599800;2022-11-04T08:26:13;14.53;;;5.07;;
5847;SDS011;8756;49.29324300;8.70599800;2022-11-04T08:28:41;14.47;;;6.20;;
5847;SDS011;8756;49.29324300;8.70599800;2022-11-04T08:31:08;15.40;;;5.83;;
5847;SDS011;8756;49.29324300;8.70599800;2022-11-04T08:33:38;17.80;;;5.63;;
5847;SDS011;8756;49.29324300;8.70599800;2022-11-04T08:36:09;13.97;;;6.27;;
5847;SDS011;8756;49.29324300;8.70599800;2022-11-04T08:38:42;20.50;;;6.77;;
5847;SDS011;8756;49.29324300;8.70599800;2022-11-04T08:41:09;15.80;;;6.00;;
5847;SDS011;8756;49.29324300;8.70599800;2022-11-04T08:43:37;15.40;;;4.80;;
5847;SDS011;8756;49.29324300;8.70599800;2022-11-04T08:46:04;11.73;;;4.17;;
5847;SDS011;8756;49.29324300;8.70599800;2022-11-04T08:48:36;12.77;;;4.43;;
5847;SDS011;8756;49.29324300;8.70599800;2022-11-04T08:51:04;12.83;;;4.60;;
5847;SDS011;8756;49.29324300;8.70599800;2022-11-04T08:53:36;12.43;;;4.67;;
5847;SDS011;8756;49.29324300;8.70599800;2022-11-04T08:56:08;13.30;;;4.90;;
5847;SDS011;8756;49.29324300;8.70599800;2022-11-04T08:58:40;12.70;;;4.77;;
5847;SDS011;8756;49.29324300;8.70599800;2022-11-04T09:01:06;11.70;;;4.20;;
5847;SDS011;8756;49.29324300;8.70599800;2022-11-04T09:03:33;14.00;;;4.63;;
5847;SDS011;8756;49.29324300;8.70599800;2022-11-04T09:06:02;18.43;;;4.80;;
5847;SDS011;8756;49.29324300;8.70599800;2022-11-04T09:08:30;13.00;;;5.20;;
5847;SDS011;8756;49.29324300;8.70599800;2022-11-04T09:10:55;12.47;;;4.87;;
5847;SDS011;8756;49.29324300;8.70599800;2022-11-04T09:13:21;14.63;;;5.33;;
5847;SDS011;8756;49.29324300;8.70599800;2022-11-04T09:15:47;15.60;;;3.90;;
5847;SDS011;8756;49.29324300;8.70599800;2022-11-04T09:18:16;13.10;;;4.90;;
5847;SDS011;8756;49.29324300;8.70599800;2022-11-04T09:20:42;13.63;;;4.43;;
5847;SDS011;8756;49.29324300;8.70599800;2022-11-04T09:23:07;12.60;;;4.60;;
5847;SDS011;8756;49.29324300;8.70599800;2022-11-04T09:25:34;15.07;;;4.60;;
5847;SDS011;8756;49.29324300;8.70599800;2022-11-04T09:28:00;12.10;;;4.60;;
5847;SDS011;8756;49.29324300;8.70599800;2022-11-04T09:30:26;11.83;;;4.60;;
5847;SDS011;8756;49.29324300;8.70599800;2022-11-04T09:32:52;15.53;;;4.27;;
5847;SDS011;8756;49.29324300;8.70599800;2022-11-04T09:35:18;14.80;;;4.57;;
5847;SDS011;8756;49.29324300;8.70599800;2022-11-04T09:37:44;11.30;;;3.77;;
5847;SDS011;8756;49.29324300;8.70599800;2022-11-04T09:40:15;11.10;;;3.87;;
5847;SDS011;8756;49.29324300;8.70599800;2022-11-04T09:45:28;14.47;;;5.30;;
5847;SDS011;8756;49.29324300;8.70599800;2022-11-04T09:48:03;11.63;;;3.93;;
5847;SDS011;8756;49.29324300;8.70599800;2022-11-04T09:50:37;12.33;;;4.47;;
5847;SDS011;8756;49.29324300;8.70599800;2022-11-04T09:53:14;12.37;;;4.30;;
5847;SDS011;8756;49.29324300;8.70599800;2022-11-04T09:55:46;14.37;;;4.40;;
5847;SDS011;8756;49.29324300;8.70599800;2022-11-04T09:58:22;11.23;;;4.07;;
5847;SDS011;8756;49.29324300;8.70599800;2022-11-04T10:00:52;14.53;;;5.20;;
5847;SDS011;8756;49.29324300;8.70599800;2022-11-04T10:15:23;11.30;;;3.80;;
5847;SDS011;8756;49.29324300;8.70599800;2022-11-04T10:21:46;13.33;;;3.83;;
5847;SDS011;8756;49.29324300;8.70599800;2022-11-04T10:27:20;12.67;;;3.73;;
5847;SDS011;8756;49.29324300;8.70599800;2022-11-04T10:29:51;10.43;;;4.00;;
5847;SDS011;8756;49.29324300;8.70599800;2022-11-04T10:32:59;10.83;;;3.93;;
5847;SDS011;8756;49.29324300;8.70599800;2022-11-04T10:36:01;11.93;;;3.43;;
5847;SDS011;8756;49.29324300;8.70599800;2022-11-04T10:38:37;10.83;;;3.40;;
5847;SDS011;8756;49.29324300;8.70599800;2022-11-04T10:41:15;11.97;;;3.50;;
5847;SDS011;8756;49.29324300;8.70599800;2022-11-04T10:43:53;10.37;;;3.27;;
5847;SDS011;8756;49.29324300;8.70599800;2022-11-04T10:46:33;10.83;;;3.37;;
5847;SDS011;8756;49.29324300;8.70599800;2022-11-04T10:52:34;10.23;;;2.90;;
5847;SDS011;8756;49.29324300;8.70599800;2022-11-04T10:55:01;10.50;;;3.60;;
5847;SDS011;8756;49.29324300;8.70599800;2022-11-04T10:57:34;12.73;;;3.43;;
5847;SDS011;8756;49.29324300;8.70599800;2022-11-04T11:00:00;12.47;;;3.47;;
5847;SDS011;8756;49.29324300;8.70599800;2022-11-04T11:07:42;12.00;;;3.50;;
5847;SDS011;8756;49.29324300;8.70599800;2022-11-04T11:10:18;13.20;;;3.70;;
5847;SDS011;8756;49.29324300;8.70599800;2022-11-04T11:12:57;12.30;;;4.17;;
5847;SDS011;8756;49.29324300;8.70599800;2022-11-04T11:20:47;12.40;;;3.63;;
5847;SDS011;8756;49.29324300;8.70599800;2022-11-04T11:23:37;11.23;;;3.33;;
5847;SDS011;8756;49.29324300;8.70599800;2022-11-04T11:26:18;13.37;;;3.50;;
5847;SDS011;8756;49.29324300;8.70599800;2022-11-04T11:28:53;13.17;;;3.03;;
5847;SDS011;8756;49.29324300;8.70599800;2022-11-04T11:31:21;13.10;;;3.30;;
5847;SDS011;8756;49.29324300;8.70599800;2022-11-04T11:36:29;11.90;;;3.67;;
5847;SDS011;8756;49.29324300;8.70599800;2022-11-04T11:41:58;12.43;;;3.13;;
5847;SDS011;8756;49.29324300;8.70599800;2022-11-04T11:44:30;10.73;;;3.30;;
5847;SDS011;8756;49.29324300;8.70599800;2022-11-04T11:47:06;10.20;;;3.27;;
5847;SDS011;8756;49.29324300;8.70599800;2022-11-04T11:49:44;14.40;;;3.67;;
5847;SDS011;8756;49.29324300;8.70599800;2022-11-04T11:52:32;11.50;;;3.60;;
5847;SDS011;8756;49.29324300;8.70599800;2022-11-04T11:55:11;11.27;;;3.27;;
5847;SDS011;8756;49.29324300;8.70599800;2022-11-04T11:58:00;13.33;;;3.47;;
5847;SDS011;8756;49.29324300;8.70599800;2022-11-04T12:00:57;17.37;;;4.00;;
5847;SDS011;8756;49.29324300;8.70599800;2022-11-04T12:03:59;15.00;;;4.27;;
5847;SDS011;8756;49.29324300;8.70599800;2022-11-04T12:09:35;11.63;;;4.00;;
5847;SDS011;8756;49.29324300;8.70599800;2022-11-04T12:17:57;11.10;;;3.87;;
5847;SDS011;8756;49.29324300;8.70599800;2022-11-04T12:20:59;11.70;;;3.60;;
5847;SDS011;8756;49.29324300;8.70599800;2022-11-04T12:26:55;11.13;;;3.63;;
5847;SDS011;8756;49.29324300;8.70599800;2022-11-04T12:40:44;11.03;;;3.30;;
5847;SDS011;8756;49.29324300;8.70599800;2022-11-04T12:43:27;12.47;;;3.50;;
5847;SDS011;8756;49.29324300;8.70599800;2022-11-04T12:49:34;11.40;;;3.77;;
5847;SDS011;8756;49.29324300;8.70599800;2022-11-04T12:52:22;11.73;;;3.60;;
5847;SDS011;8756;49.29324300;8.70599800;2022-11-04T12:58:33;10.83;;;3.03;;
5847;SDS011;8756;49.29324300;8.70599800;2022-11-04T13:01:32;11.63;;;3.67;;
5847;SDS011;8756;49.29324300;8.70599800;2022-11-04T13:04:09;12.40;;;3.53;;
5847;SDS011;8756;49.29324300;8.70599800;2022-11-04T13:06:52;11.87;;;3.73;;
5847;SDS011;8756;49.29324300;8.70599800;2022-11-04T13:12:08;12.97;;;4.17;;
5847;SDS011;8756;49.29324300;8.70599800;2022-11-04T13:14:52;12.77;;;3.83;;
5847;SDS011;8756;49.29324300;8.70599800;2022-11-04T13:17:24;18.00;;;4.57;;
5847;SDS011;8756;49.29324300;8.70599800;2022-11-04T13:19:55;11.17;;;3.33;;
5847;SDS011;8756;49.29324300;8.70599800;2022-11-04T13:22:33;15.10;;;3.60;;
5847;SDS011;8756;49.29324300;8.70599800;2022-11-04T13:27:57;12.77;;;3.33;;
5847;SDS011;8756;49.29324300;8.70599800;2022-11-04T13:33:28;13.00;;;4.07;;
5847;SDS011;8756;49.29324300;8.70599800;2022-11-04T13:39:12;12.47;;;4.33;;
5847;SDS011;8756;49.29324300;8.70599800;2022-11-04T13:42:10;13.23;;;3.40;;
5847;SDS011;8756;49.29324300;8.70599800;2022-11-04T13:44:45;15.10;;;4.20;;
5847;SDS011;8756;49.29324300;8.70599800;2022-11-04T13:47:21;13.50;;;3.60;;
5847;SDS011;8756;49.29324300;8.70599800;2022-11-04T13:49:59;13.80;;;5.00;;
5847;SDS011;8756;49.29324300;8.70599800;2022-11-04T13:52:34;11.50;;;4.53;;
5847;SDS011;8756;49.29324300;8.70599800;2022-11-04T13:55:17;12.40;;;3.57;;
5847;SDS011;8756;49.29324300;8.70599800;2022-11-04T13:57:56;12.10;;;3.90;;
5847;SDS011;8756;49.29324300;8.70599800;2022-11-04T14:00:25;12.13;;;3.93;;
5847;SDS011;8756;49.29324300;8.70599800;2022-11-04T14:05:59;11.87;;;3.87;;
5847;SDS011;8756;49.29324300;8.70599800;2022-11-04T14:08:26;11.27;;;3.50;;
5847;SDS011;8756;49.29324300;8.70599800;2022-11-04T14:18:49;14.67;;;4.00;;
5847;SDS011;8756;49.29324300;8.70599800;2022-11-04T14:23:53;12.23;;;3.40;;
5847;SDS011;8756;49.29324300;8.70599800;2022-11-04T14:26:23;12.60;;;4.00;;
5847;SDS011;8756;49.29324300;8.70599800;2022-11-04T14:29:23;14.70;;;3.90;;
5847;SDS011;8756;49.29324300;8.70599800;2022-11-04T14:31:54;11.70;;;3.90;;
5847;SDS011;8756;49.29324300;8.70599800;2022-11-04T14:37:01;11.90;;;3.07;;
5847;SDS011;8756;49.29324300;8.70599800;2022-11-04T14:39:46;13.27;;;3.47;;
5847;SDS011;8756;49.29324300;8.70599800;2022-11-04T14:43:04;11.10;;;3.70;;
5847;SDS011;8756;49.29324300;8.70599800;2022-11-04T14:45:23;11.17;;;3.13;;
5847;SDS011;8756;49.29324300;8.70599800;2022-11-04T14:48:09;15.03;;;4.50;;
5847;SDS011;8756;49.29324300;8.70599800;2022-11-04T14:50:42;10.90;;;3.50;;
5847;SDS011;8756;49.29324300;8.70599800;2022-11-04T14:53:25;12.70;;;3.93;;
5847;SDS011;8756;49.29324300;8.70599800;2022-11-04T14:56:03;15.10;;;5.27;;
5847;SDS011;8756;49.29324300;8.70599800;2022-11-04T15:01:24;12.90;;;4.43;;
5847;SDS011;8756;49.29324300;8.70599800;2022-11-04T15:03:53;16.73;;;4.47;;
5847;SDS011;8756;49.29324300;8.70599800;2022-11-04T15:06:28;11.93;;;4.30;;
5847;SDS011;8756;49.29324300;8.70599800;2022-11-04T15:08:54;11.83;;;4.47;;
5847;SDS011;8756;49.29324300;8.70599800;2022-11-04T15:11:25;12.40;;;3.57;;
5847;SDS011;8756;49.29324300;8.70599800;2022-11-04T15:14:16;10.27;;;3.30;;
5847;SDS011;8756;49.29324300;8.70599800;2022-11-04T15:16:49;16.53;;;3.80;;
5847;SDS011;8756;49.29324300;8.70599800;2022-11-04T15:19:26;10.63;;;3.00;;
5847;SDS011;8756;49.29324300;8.70599800;2022-11-04T15:21:58;11.50;;;2.97;;
5847;SDS011;8756;49.29324300;8.70599800;2022-11-04T15:24:30;11.20;;;3.27;;
5847;SDS011;8756;49.29324300;8.70599800;2022-11-04T15:26:59;11.30;;;3.27;;
5847;SDS011;8756;49.29324300;8.70599800;2022-11-04T15:29:29;13.43;;;3.50;;
5847;SDS011;8756;49.29324300;8.70599800;2022-11-04T15:31:59;10.73;;;2.67;;
5847;SDS011;8756;49.29324300;8.70599800;2022-11-04T15:34:28;13.27;;;3.10;;
5847;SDS011;8756;49.29324300;8.70599800;2022-11-04T15:36:59;14.23;;;4.30;;
5847;SDS011;8756;49.29324300;8.70599800;2022-11-04T15:39:29;20.43;;;4.17;;
5847;SDS011;8756;49.29324300;8.70599800;2022-11-04T15:42:05;12.67;;;4.10;;
5847;SDS011;8756;49.29324300;8.70599800;2022-11-04T15:44:53;11.57;;;3.93;;
5847;SDS011;8756;49.29324300;8.70599800;2022-11-04T15:47:21;11.70;;;4.43;;
5847;SDS011;8756;49.29324300;8.70599800;2022-11-04T15:49:51;11.00;;;3.70;;
5847;SDS011;8756;49.29324300;8.70599800;2022-11-04T15:54:51;11.93;;;4.00;;
5847;SDS011;8756;49.29324300;8.70599800;2022-11-04T15:57:23;12.30;;;3.60;;
5847;SDS011;8756;49.29324300;8.70599800;2022-11-04T15:59:57;18.03;;;7.70;;